createdAt,value
2022-09-04T00:01:17.457Z,60.52
2022-09-04T00:04:06.980Z,60.32
2022-09-04T00:06:38.424Z,60.30
2022-09-04T00:09:15.890Z,60.34
2022-09-04T00:12:17.875Z,60.60
2022-09-04T00:14:54.555Z,60.40
2022-09-04T00:17:20.974Z,60.18
2022-09-04T00:19:56.306Z,60.34
2022-09-04T00:22:35.003Z,60.27
2022-09-04T00:25:08.123Z,60.08
2022-09-04T00:27:44.234Z,60.07
2022-09-04T00:30:20.514Z,59.77
2022-09-04T00:32:54.981Z,59.85
2022-09-04T00:35:30.807Z,59.50
2022-09-04T00:38:07.765Z,59.92
2022-09-04T00:40:34.215Z,59.96
2022-09-04T00:43:19.158Z,59.72
2022-09-04T00:45:46.440Z,59.72
2022-09-04T00:48:19.428Z,59.62
2022-09-04T00:51:04.440Z,59.60
2022-09-04T00:53:49.511Z,59.65
2022-09-04T00:56:29.616Z,59.28
2022-09-04T00:58:55.980Z,59.57
2022-09-04T01:01:24.652Z,59.48
2022-09-04T01:04:06.705Z,59.57
2022-09-04T01:06:42.913Z,59.80
2022-09-04T01:09:10.139Z,59.91
2022-09-04T01:11:55.192Z,60.07
2022-09-04T01:14:34.505Z,59.92
2022-09-04T01:17:25.984Z,60.01
2022-09-04T01:20:07.815Z,60.36
2022-09-04T01:22:53.003Z,60.37
2022-09-04T01:25:30.098Z,60.32
2022-09-04T01:28:04.875Z,60.44
2022-09-04T01:30:34.431Z,60.37
2022-09-04T01:33:25.222Z,60.20
2022-09-04T01:35:55.974Z,60.40
2022-09-04T01:38:25.473Z,60.44
2022-09-04T01:40:54.784Z,60.10
2022-09-04T01:43:22.061Z,60.27
2022-09-04T01:45:51.210Z,60.27
2022-09-04T01:48:20.547Z,60.14
2022-09-04T01:50:50.124Z,60.28
2022-09-04T01:53:25.311Z,60.03
2022-09-04T01:56:12.847Z,60.43
2022-09-04T01:58:42.053Z,60.45
2022-09-04T02:01:26.136Z,60.28
2022-09-04T02:03:58.187Z,60.29
2022-09-04T02:06:33.230Z,60.27
2022-09-04T02:09:19.179Z,60.21
2022-09-04T02:11:56.851Z,60.08
2022-09-04T02:14:34.356Z,59.88
2022-09-04T02:17:11.498Z,59.88
2022-09-04T02:19:57.374Z,60.06
2022-09-04T02:22:46.587Z,59.82
2022-09-04T02:25:20.843Z,59.90
2022-09-04T02:27:56.456Z,59.80
2022-09-04T02:30:22.882Z,59.91
2022-09-04T02:32:55.972Z,60.19
2022-09-04T02:35:32.525Z,59.63
2022-09-04T02:38:06.444Z,59.80
2022-09-04T02:40:39.905Z,60.02
2022-09-04T02:43:15.540Z,59.83
2022-09-04T02:45:50.805Z,60.05
2022-09-04T02:48:24.479Z,59.60
2022-09-04T02:51:13.848Z,59.80
2022-09-04T02:53:59.034Z,60.10
2022-09-04T02:56:43.733Z,60.09
2022-09-04T02:59:22.116Z,59.94
2022-09-04T03:01:53.447Z,60.25
2022-09-04T03:04:19.880Z,60.08
2022-09-04T03:06:49.024Z,60.27
2022-09-04T03:09:23.682Z,60.33
2022-09-04T03:11:59.563Z,60.39
2022-09-04T03:14:34.454Z,60.17
2022-09-04T03:17:09.423Z,60.32
2022-09-04T03:19:40.289Z,60.41
2022-09-04T03:22:12.386Z,60.45
2022-09-04T03:24:45.259Z,60.26
2022-09-04T03:27:13.938Z,60.21
2022-09-04T03:29:55.087Z,60.25
2022-09-04T03:32:40.074Z,60.32
2022-09-04T03:35:25.777Z,60.32
2022-09-04T03:38:10.767Z,60.26
2022-09-04T03:40:43.170Z,60.49
2022-09-04T03:43:12.694Z,60.24
2022-09-04T03:45:47.012Z,60.45
2022-09-04T03:48:26.622Z,60.27
2022-09-04T03:51:02.194Z,60.24
2022-09-04T03:53:41.445Z,60.58
2022-09-04T03:56:11.162Z,60.33
2022-09-04T03:58:50.012Z,60.60
2022-09-04T04:01:31.275Z,60.29
2022-09-04T04:04:16.218Z,60.24
2022-09-04T04:07:08.606Z,60.34
2022-09-04T04:10:11.005Z,60.34
2022-09-04T04:12:46.217Z,60.41
2022-09-04T04:15:16.226Z,59.91
2022-09-04T04:18:02.223Z,60.34
2022-09-04T04:20:40.560Z,60.16
2022-09-04T04:23:21.979Z,59.94
2022-09-04T04:25:52.541Z,60.42
2022-09-04T04:28:31.344Z,60.04
2022-09-04T04:31:16.875Z,59.82
2022-09-04T04:33:58.223Z,59.97
2022-09-04T04:36:27.607Z,59.89
2022-09-04T04:38:57.617Z,59.98
2022-09-04T04:41:30.834Z,60.04
2022-09-04T04:43:57.224Z,60.36
2022-09-04T04:46:42.447Z,60.42
2022-09-04T04:49:08.831Z,60.53
2022-09-04T04:51:46.208Z,60.44
2022-09-04T04:54:24.816Z,60.41
2022-09-04T04:56:55.958Z,60.41
2022-09-04T04:59:41.249Z,60.27
2022-09-04T05:02:17.136Z,60.24
2022-09-04T05:04:49.354Z,60.24
2022-09-04T05:07:54.431Z,60.51
2022-09-04T05:10:30.425Z,60.32
2022-09-04T05:13:08.179Z,60.17
2022-09-04T05:16:07.908Z,60.24
2022-09-04T05:18:39.892Z,60.21
2022-09-04T05:21:06.294Z,60.52
2022-09-04T05:23:38.930Z,60.29
2022-09-04T05:26:23.763Z,60.45
2022-09-04T05:29:09.252Z,60.48
2022-09-04T05:31:56.978Z,60.56
2022-09-04T05:34:41.302Z,60.60
2022-09-04T05:37:15.910Z,60.63
2022-09-04T05:39:50.065Z,60.57
2022-09-04T05:42:35.011Z,60.82
2022-09-04T05:45:05.414Z,60.78
2022-09-04T05:47:31.768Z,60.60
2022-09-04T05:50:04.018Z,60.75
2022-09-04T05:52:48.519Z,60.55
2022-09-04T05:55:33.846Z,60.48
2022-09-04T05:58:06.257Z,60.73
2022-09-04T06:00:44.184Z,61.05
2022-09-04T06:03:13.782Z,60.48
2022-09-04T06:05:58.707Z,60.52
2022-09-04T06:08:43.831Z,60.57
2022-09-04T06:11:28.842Z,60.52
2022-09-04T06:14:03.470Z,60.78
2022-09-04T06:16:32.656Z,60.61
2022-09-04T06:18:59.956Z,60.61
2022-09-04T06:21:26.327Z,60.48
2022-09-04T06:24:04.497Z,60.45
2022-09-04T06:26:49.713Z,60.53
2022-09-04T06:29:18.890Z,60.52
2022-09-04T06:31:53.892Z,60.46
2022-09-04T06:34:23.311Z,60.55
2022-09-04T06:37:01.690Z,60.43
2022-09-04T06:39:34.031Z,60.45
2022-09-04T06:42:13.483Z,60.34
2022-09-04T06:45:02.999Z,60.37
2022-09-04T06:47:43.191Z,60.16
2022-09-04T06:50:22.042Z,60.13
2022-09-04T06:52:48.504Z,60.32
2022-09-04T06:55:26.275Z,60.11
2022-09-04T06:57:59.916Z,60.29
2022-09-04T07:00:28.364Z,60.31
2022-09-04T07:03:00.620Z,60.39
2022-09-04T07:05:50.046Z,60.26
2022-09-04T07:08:35.310Z,60.05
2022-09-04T07:11:17.046Z,60.06
2022-09-04T07:13:49.386Z,60.18
2022-09-04T07:16:34.443Z,60.04
2022-09-04T07:19:10.061Z,60.11
2022-09-04T07:21:49.565Z,60.16
2022-09-04T07:24:18.716Z,59.70
2022-09-04T07:26:51.734Z,59.90
2022-09-04T07:29:30.676Z,60.03
2022-09-04T07:32:08.277Z,59.87
2022-09-04T07:34:40.746Z,59.79
2022-09-04T07:37:17.507Z,59.79
2022-09-04T07:39:57.696Z,59.88
2022-09-04T07:42:43.747Z,59.88
2022-09-04T07:45:22.622Z,59.84
2022-09-04T07:48:07.830Z,59.72
2022-09-04T07:50:41.771Z,59.77
2022-09-04T07:53:14.007Z,59.77
2022-09-04T07:55:48.352Z,58.91
2022-09-04T07:58:41.187Z,59.11
2022-09-04T08:01:24.915Z,58.88
2022-09-04T08:03:54.931Z,58.54
2022-09-04T08:06:23.012Z,57.47
2022-09-04T08:09:04.539Z,57.80
2022-09-04T08:11:37.159Z,56.93
2022-09-04T08:14:03.537Z,57.65
2022-09-04T08:16:48.891Z,57.51
2022-09-04T08:19:41.080Z,56.70
2022-09-04T08:22:12.054Z,56.83
2022-09-04T08:24:38.427Z,56.57
2022-09-04T08:27:16.992Z,57.56
2022-09-04T08:29:52.457Z,56.83
2022-09-04T08:32:36.776Z,56.97
2022-09-04T08:35:10.447Z,57.13
2022-09-04T08:37:57.149Z,57.18
2022-09-04T08:40:53.081Z,57.03
2022-09-04T08:43:58.332Z,56.58
2022-09-04T08:46:34.082Z,57.03
2022-09-04T08:49:19.210Z,56.59
2022-09-04T08:51:57.232Z,57.03
2022-09-04T08:54:31.253Z,57.08
2022-09-04T08:57:03.432Z,57.21
2022-09-04T08:59:48.350Z,56.85
2022-09-04T09:02:33.379Z,56.97
2022-09-04T09:05:23.977Z,56.77
2022-09-04T09:08:06.051Z,56.74
2022-09-04T09:10:42.983Z,57.01
2022-09-04T09:13:28.236Z,57.69
2022-09-04T09:16:13.091Z,56.44
2022-09-04T09:18:57.901Z,57.00
2022-09-04T09:21:30.370Z,55.88
2022-09-04T09:24:28.135Z,56.91
2022-09-04T09:27:12.954Z,56.08
2022-09-04T09:29:39.350Z,56.30
2022-09-04T09:32:24.767Z,56.05
2022-09-04T09:35:10.107Z,54.84
2022-09-04T09:38:00.036Z,54.62
2022-09-04T09:40:56.082Z,55.98
2022-09-04T09:43:34.311Z,55.78
2022-09-04T09:46:00.903Z,54.83
2022-09-04T09:48:30.396Z,54.57
2022-09-04T09:51:05.745Z,54.20
2022-09-04T09:53:47.254Z,54.90
2022-09-04T09:56:14.046Z,54.79
2022-09-04T09:58:59.292Z,56.17
2022-09-04T10:01:25.764Z,55.15
2022-09-04T10:04:11.959Z,55.94
2022-09-04T10:06:39.558Z,55.63
2022-09-04T10:09:12.005Z,55.85
2022-09-04T10:11:49.796Z,55.00
2022-09-04T10:14:35.322Z,55.36
2022-09-04T10:17:11.670Z,55.82
2022-09-04T10:19:57.726Z,56.21
2022-09-04T10:22:33.004Z,54.87
2022-09-04T10:25:17.603Z,54.41
2022-09-04T10:27:56.277Z,55.39
2022-09-04T10:30:23.709Z,54.69
2022-09-04T10:32:51.680Z,55.26
2022-09-04T10:35:33.098Z,55.68
2022-09-04T10:38:08.577Z,55.83
2022-09-04T10:40:43.251Z,55.80
2022-09-04T10:43:30.168Z,55.18
2022-09-04T10:46:10.851Z,54.85
2022-09-04T10:48:57.115Z,56.22
2022-09-04T10:51:38.827Z,54.77
2022-09-04T10:54:12.681Z,56.17
2022-09-04T10:56:47.347Z,56.58
2022-09-04T10:59:34.033Z,55.80
2022-09-04T11:02:15.411Z,54.36
2022-09-04T11:04:45.833Z,56.75
2022-09-04T11:07:15.226Z,56.43
2022-09-04T11:09:44.727Z,56.89
2022-09-04T11:12:11.255Z,56.79
2022-09-04T11:14:44.295Z,54.79
2022-09-04T11:17:10.747Z,54.31
2022-09-04T11:19:44.162Z,55.33
2022-09-04T11:22:14.725Z,54.63
2022-09-04T11:25:01.532Z,55.82
2022-09-04T11:27:47.750Z,54.92
2022-09-04T11:30:19.380Z,55.19
2022-09-04T11:32:51.883Z,56.09
2022-09-04T11:35:19.306Z,55.55
2022-09-04T11:38:21.495Z,55.33
2022-09-04T11:40:55.323Z,55.26
2022-09-04T11:43:37.358Z,55.98
2022-09-04T11:46:04.162Z,56.87
2022-09-04T11:48:57.372Z,55.95
2022-09-04T11:51:44.160Z,56.14
2022-09-04T11:54:31.998Z,55.39
2022-09-04T11:56:58.359Z,54.29
2022-09-04T11:59:31.779Z,54.90
2022-09-04T12:02:07.402Z,55.38
2022-09-04T12:04:49.419Z,54.41
2022-09-04T12:07:40.671Z,55.66
2022-09-04T12:10:15.634Z,54.35
2022-09-04T12:12:50.367Z,55.42
2022-09-04T12:15:32.091Z,55.81
2022-09-04T12:18:04.352Z,55.34
2022-09-04T12:20:33.656Z,55.14
2022-09-04T12:23:03.812Z,53.99
2022-09-04T12:25:49.938Z,54.31
2022-09-04T12:28:33.798Z,52.32
2022-09-04T12:31:19.294Z,54.23
2022-09-04T12:33:57.902Z,52.30
2022-09-04T12:36:34.288Z,54.21
2022-09-04T12:39:19.757Z,53.51
2022-09-04T12:42:05.235Z,54.91
2022-09-04T12:44:50.664Z,54.77
2022-09-04T12:47:26.085Z,55.73
2022-09-04T12:49:56.182Z,57.60
2022-09-04T12:52:41.239Z,56.82
2022-09-04T12:55:07.744Z,54.44
2022-09-04T12:57:34.216Z,54.55
2022-09-04T13:00:06.214Z,55.03
2022-09-04T13:02:34.187Z,55.90
2022-09-04T13:05:02.520Z,54.09
2022-09-04T13:07:28.931Z,54.81
2022-09-04T13:10:13.559Z,53.72
2022-09-04T13:12:48.982Z,54.25
2022-09-04T13:15:19.609Z,53.98
2022-09-04T13:18:09.171Z,55.45
2022-09-04T13:20:44.814Z,54.68
2022-09-04T13:23:14.186Z,55.08
2022-09-04T13:25:50.694Z,55.26
2022-09-04T13:28:17.397Z,55.44
2022-09-04T13:30:52.770Z,55.41
2022-09-04T13:33:39.795Z,56.56
2022-09-04T13:36:11.141Z,55.17
2022-09-04T13:38:52.628Z,55.82
2022-09-04T13:41:22.172Z,55.73
2022-09-04T13:44:08.071Z,54.89
2022-09-04T13:46:40.734Z,54.30
2022-09-04T13:49:15.835Z,54.97
2022-09-04T13:51:45.459Z,55.57
2022-09-04T13:54:17.635Z,56.35
2022-09-04T13:56:53.042Z,55.07
2022-09-04T13:59:20.603Z,56.45
2022-09-04T14:01:49.351Z,56.10
2022-09-04T14:04:26.457Z,55.90
2022-09-04T14:07:02.420Z,56.25
2022-09-04T14:09:31.284Z,56.91
2022-09-04T14:12:07.992Z,56.54
2022-09-04T14:14:41.432Z,55.94
2022-09-04T14:17:08.584Z,56.31
2022-09-04T14:19:49.800Z,55.59
2022-09-04T14:22:30.840Z,54.95
2022-09-04T14:25:19.048Z,56.16
2022-09-04T14:27:49.152Z,56.49
2022-09-04T14:30:17.914Z,56.72
2022-09-04T14:32:45.304Z,56.80
2022-09-04T14:35:23.810Z,56.23
2022-09-04T14:37:54.222Z,55.75
2022-09-04T14:40:25.366Z,56.14
2022-09-04T14:43:00.043Z,56.77
2022-09-04T14:45:46.644Z,56.76
2022-09-04T14:48:15.338Z,56.86
2022-09-04T14:50:48.062Z,56.04
2022-09-04T14:53:20.691Z,55.33
2022-09-04T14:56:17.843Z,56.64
2022-09-04T14:59:02.612Z,56.26
2022-09-04T15:01:31.370Z,56.62
2022-09-04T15:04:16.323Z,55.91
2022-09-04T15:07:09.789Z,56.11
2022-09-04T15:09:41.085Z,56.29
2022-09-04T15:12:25.244Z,56.23
2022-09-04T15:14:58.942Z,55.10
2022-09-04T15:17:29.459Z,56.01
2022-09-04T15:20:01.783Z,56.40
2022-09-04T15:22:49.342Z,56.23
2022-09-04T15:25:18.877Z,55.78
2022-09-04T15:27:57.942Z,55.92
2022-09-04T15:30:28.985Z,57.05
2022-09-04T15:33:06.579Z,57.64
2022-09-04T15:35:34.023Z,57.66
2022-09-04T15:38:06.301Z,57.59
2022-09-04T15:41:12.803Z,57.42
2022-09-04T15:43:45.453Z,57.66
2022-09-04T15:46:20.946Z,57.05
2022-09-04T15:49:03.343Z,55.98
2022-09-04T15:51:29.784Z,56.66
2022-09-04T15:54:11.914Z,56.48
2022-09-04T15:56:45.424Z,56.72
2022-09-04T15:59:16.064Z,56.92
2022-09-04T16:02:11.777Z,57.27
2022-09-04T16:04:44.766Z,57.83
2022-09-04T16:07:20.610Z,58.08
2022-09-04T16:09:50.460Z,56.95
2022-09-04T16:12:30.745Z,57.29
2022-09-04T16:15:00.222Z,57.57
2022-09-04T16:17:33.355Z,57.52
2022-09-04T16:20:10.307Z,57.43
2022-09-04T16:22:46.506Z,57.34
2022-09-04T16:25:19.272Z,57.77
2022-09-04T16:27:57.273Z,58.24
2022-09-04T16:30:30.619Z,57.87
2022-09-04T16:32:57.870Z,57.44
2022-09-04T16:35:25.823Z,57.80
2022-09-04T16:37:57.098Z,58.29
2022-09-04T16:40:29.502Z,57.52
2022-09-04T16:43:00.087Z,57.16
2022-09-04T16:45:30.122Z,57.64
2022-09-04T16:48:34.502Z,58.13
2022-09-04T16:51:39.684Z,58.16
2022-09-04T16:54:10.646Z,57.50
2022-09-04T16:56:40.617Z,57.41
2022-09-04T16:59:26.362Z,58.21
2022-09-04T17:02:03.182Z,58.37
2022-09-04T17:04:39.627Z,57.99
2022-09-04T17:07:14.189Z,58.62
2022-09-04T17:10:01.710Z,58.23
2022-09-04T17:12:48.476Z,58.40
2022-09-04T17:15:33.875Z,58.80
2022-09-04T17:18:05.428Z,58.83
2022-09-04T17:22:18.826Z,58.75
2022-09-04T17:29:04.279Z,58.97
2022-09-04T17:29:16.513Z,59.29
2022-09-04T17:29:34.484Z,59.24
2022-09-04T17:32:30.390Z,59.33
2022-09-04T17:40:33.131Z,59.66
2022-09-04T17:40:54.951Z,59.40
2022-09-04T17:41:36.214Z,59.60
2022-09-04T17:44:10.467Z,59.36
2022-09-04T17:46:49.027Z,59.63
2022-09-04T17:49:22.624Z,59.67
2022-09-04T17:51:58.209Z,59.76
2022-09-04T17:54:27.273Z,59.64
2022-09-04T17:56:53.685Z,59.65
2022-09-04T17:59:32.423Z,59.93
2022-09-04T18:01:59.307Z,60.06
2022-09-04T18:04:57.192Z,59.78
2022-09-04T18:08:08.060Z,59.86
2022-09-04T18:10:23.876Z,60.01
2022-09-04T18:13:36.249Z,60.01
2022-09-04T18:15:55.570Z,59.94
2022-09-04T18:18:25.098Z,59.78
2022-09-04T18:20:54.783Z,59.91
2022-09-04T18:23:51.349Z,60.03
2022-09-04T18:26:21.809Z,60.08
2022-09-04T18:28:57.020Z,60.12
2022-09-04T18:37:10.920Z,60.29
2022-09-04T18:37:18.585Z,60.32
2022-09-04T18:37:45.011Z,60.08
2022-09-04T18:40:40.709Z,60.53
2022-09-04T18:50:22.959Z,60.33
2022-09-04T18:50:24.955Z,60.14
2022-09-04T18:50:48.953Z,60.27
2022-09-04T18:51:38.806Z,60.52
2022-09-04T18:54:11.382Z,60.54
2022-09-04T18:56:45.374Z,60.46
2022-09-04T18:59:18.388Z,60.56
2022-09-04T19:01:56.524Z,60.73
2022-09-04T19:04:38.847Z,61.00
2022-09-04T19:07:07.846Z,60.96
2022-09-04T19:09:55.823Z,61.25
2022-09-04T19:12:25.096Z,61.55
2022-09-04T19:15:02.774Z,61.34
2022-09-04T19:17:30.986Z,61.34
2022-09-04T19:20:06.063Z,61.45
2022-09-04T19:22:55.948Z,61.47
2022-09-04T19:25:41.500Z,61.55
2022-09-04T19:28:09.171Z,61.68
2022-09-04T19:30:46.707Z,61.37
2022-09-04T19:33:33.248Z,61.47
2022-09-04T19:36:23.027Z,61.57
2022-09-04T19:46:04.310Z,61.50
2022-09-04T19:46:09.034Z,61.55
2022-09-04T19:46:15.863Z,61.69
2022-09-04T19:47:37.271Z,61.45
2022-09-04T19:53:19.110Z,61.86
2022-09-04T19:53:31.152Z,61.62
2022-09-04T19:55:44.895Z,61.87
2022-09-04T19:58:15.199Z,61.83
2022-09-04T20:00:46.469Z,61.83
2022-09-04T20:03:30.187Z,61.58
2022-09-04T20:06:21.069Z,61.71
2022-09-04T20:08:55.878Z,61.91
2022-09-04T20:11:35.549Z,62.03
2022-09-04T20:14:13.985Z,62.06
2022-09-04T20:17:01.361Z,61.83
2022-09-04T20:19:38.756Z,61.69
2022-09-04T20:22:10.203Z,61.54
2022-09-04T20:24:43.306Z,61.49
2022-09-04T20:27:34.940Z,61.81
2022-09-04T20:30:04.689Z,61.60
2022-09-04T20:32:35.654Z,61.78
2022-09-04T20:35:13.503Z,61.54
2022-09-04T20:38:23.158Z,61.54
2022-09-04T20:40:53.861Z,61.50
2022-09-04T20:43:28.088Z,61.64
2022-09-04T20:51:03.565Z,61.48
2022-09-04T20:52:52.986Z,61.25
2022-09-04T20:52:55.886Z,61.43
2022-09-04T20:54:41.448Z,61.50
2022-09-04T21:03:03.008Z,61.47
2022-09-04T21:03:09.428Z,61.48
2022-09-04T21:03:18.287Z,61.50
2022-09-04T21:05:50.714Z,61.68
2022-09-04T21:08:35.270Z,61.69
2022-09-04T21:11:40.433Z,61.58
2022-09-04T21:14:13.427Z,61.82
2022-09-04T21:16:58.669Z,61.77
2022-09-04T21:19:29.061Z,61.70
2022-09-04T21:22:02.315Z,61.84
2022-09-04T21:24:42.994Z,61.88
2022-09-04T21:27:09.432Z,62.15
2022-09-04T21:29:48.147Z,62.23
2022-09-04T21:32:14.480Z,62.19
2022-09-04T21:34:59.882Z,62.24
2022-09-04T21:37:29.966Z,62.35
2022-09-04T21:39:58.558Z,62.30
2022-09-04T21:42:25.107Z,62.45
2022-09-04T21:44:52.508Z,62.27
2022-09-04T21:47:25.120Z,62.35
2022-09-04T21:50:09.802Z,62.71
2022-09-04T21:53:02.403Z,62.46
2022-09-04T21:57:09.023Z,62.52
2022-09-04T22:02:40.617Z,62.47
2022-09-04T22:02:44.248Z,62.58
2022-09-04T22:04:55.387Z,62.66
2022-09-04T22:12:36.851Z,62.29
2022-09-04T22:13:30.259Z,62.58
2022-09-04T22:13:39.703Z,62.40
2022-09-04T22:16:19.717Z,62.24
2022-09-04T22:18:59.475Z,62.35
2022-09-04T22:21:45.223Z,62.21
2022-09-04T22:24:17.467Z,62.14
2022-09-04T22:27:02.788Z,62.24
2022-09-04T22:29:48.350Z,62.27
2022-09-04T22:32:20.333Z,62.21
2022-09-04T22:34:53.345Z,62.06
2022-09-04T22:37:36.043Z,62.14
2022-09-04T22:40:12.671Z,62.01
2022-09-04T22:42:45.284Z,62.34
2022-09-04T22:45:21.399Z,62.12
2022-09-04T22:47:47.783Z,62.27
2022-09-04T22:50:20.180Z,62.10
2022-09-04T22:52:57.915Z,62.25
2022-09-04T22:56:19.218Z,62.14
2022-09-04T22:58:51.431Z,62.22
2022-09-04T23:01:30.109Z,62.08
2022-09-04T23:04:35.271Z,62.12
2022-09-04T23:11:14.106Z,62.17
2022-09-04T23:13:51.847Z,62.06
2022-09-04T23:13:53.691Z,61.92
2022-09-04T23:15:52.731Z,62.12
2022-09-04T23:19:08.668Z,61.96
2022-09-04T23:26:38.100Z,61.83
2022-09-04T23:26:43.938Z,61.81
2022-09-04T23:27:28.979Z,61.88
2022-09-04T23:30:10.359Z,61.96
2022-09-04T23:32:47.323Z,62.01
2022-09-04T23:35:32.562Z,62.07
2022-09-04T23:38:17.922Z,61.92
2022-09-04T23:40:46.834Z,61.88
2022-09-04T23:43:19.237Z,62.14
2022-09-04T23:46:08.295Z,61.85
2022-09-04T23:48:53.635Z,61.96
2022-09-04T23:51:29.657Z,61.77
2022-09-04T23:54:24.687Z,61.82
2022-09-04T23:56:57.615Z,61.84
2022-09-04T23:59:35.819Z,61.78
